createdAt,value
2018-01-23T00:00:09.345Z,1010.25
2018-01-23T00:01:09.333Z,1010.30
2018-01-23T00:02:09.331Z,1010.28
2018-01-23T00:03:09.352Z,1010.29
2018-01-23T00:04:09.304Z,1010.32
2018-01-23T00:05:09.295Z,1010.31
2018-01-23T00:06:09.280Z,1010.33
2018-01-23T00:07:09.275Z,1010.37
2018-01-23T00:08:09.260Z,1010.39
2018-01-23T00:09:09.252Z,1010.39
2018-01-23T00:10:09.241Z,1010.42
2018-01-23T00:11:09.232Z,1010.42
2018-01-23T00:12:09.218Z,1010.41
2018-01-23T00:13:09.208Z,1010.45
2018-01-23T00:14:09.196Z,1010.45
2018-01-23T00:15:09.187Z,1010.43
2018-01-23T00:16:09.179Z,1010.47
2018-01-23T00:17:09.165Z,1010.42
2018-01-23T00:18:09.155Z,1010.43
2018-01-23T00:19:09.220Z,1010.43
2018-01-23T00:20:09.211Z,1010.41
2018-01-23T00:21:13.198Z,1010.50
2018-01-23T00:22:11.951Z,1010.43
2018-01-23T00:23:11.895Z,1010.51
2018-01-23T00:24:09.089Z,1010.52
2018-01-23T00:25:09.086Z,1010.56
2018-01-23T00:26:09.088Z,1010.55
2018-01-23T00:27:09.060Z,1010.59
2018-01-23T00:28:09.052Z,1010.55
2018-01-23T00:29:09.040Z,1010.60
2018-01-23T00:30:09.030Z,1010.54
2018-01-23T00:31:09.022Z,1010.53
2018-01-23T00:32:09.008Z,1010.56
2018-01-23T00:33:09.000Z,1010.55
2018-01-23T00:34:08.987Z,1010.54
2018-01-23T00:35:08.979Z,1010.58
2018-01-23T00:36:08.964Z,1010.56
2018-01-23T00:37:08.955Z,1010.60
2018-01-23T00:38:08.946Z,1010.56
2018-01-23T00:39:08.935Z,1010.61
2018-01-23T00:40:08.925Z,1010.58
2018-01-23T00:41:08.917Z,1010.57
2018-01-23T00:42:08.901Z,1010.64
2018-01-23T00:43:08.892Z,1010.61
2018-01-23T00:44:08.883Z,1010.61
2018-01-23T00:45:08.874Z,1010.66
2018-01-23T00:46:08.863Z,1010.68
2018-01-23T00:47:08.852Z,1010.70
2018-01-23T00:48:08.840Z,1010.68
2018-01-23T00:49:08.853Z,1010.70
2018-01-23T00:50:08.817Z,1010.72
2018-01-23T00:51:08.814Z,1010.72
2018-01-23T00:52:08.799Z,1010.74
2018-01-23T00:53:08.792Z,1010.67
2018-01-23T00:54:08.777Z,1010.68
2018-01-23T00:55:08.770Z,1010.67
2018-01-23T00:56:08.757Z,1010.71
2018-01-23T00:57:08.750Z,1010.69
2018-01-23T00:58:08.736Z,1010.67
2018-01-23T00:59:08.727Z,1010.69
2018-01-23T01:00:08.719Z,1010.69
2018-01-23T01:01:08.710Z,1010.68
2018-01-23T01:02:08.700Z,1010.65
2018-01-23T01:03:08.688Z,1010.67
2018-01-23T01:04:08.684Z,1010.70
2018-01-23T01:05:08.668Z,1010.74
2018-01-23T01:06:08.693Z,1010.75
2018-01-23T01:07:08.645Z,1010.76
2018-01-23T01:08:08.639Z,1010.78
2018-01-23T01:09:08.626Z,1010.77
2018-01-23T01:10:08.617Z,1010.77
2018-01-23T01:11:08.608Z,1010.78
2018-01-23T01:12:08.610Z,1010.79
2018-01-23T01:13:08.585Z,1010.75
2018-01-23T01:14:08.580Z,1010.77
2018-01-23T01:15:08.564Z,1010.82
2018-01-23T01:16:08.554Z,1010.83
2018-01-23T01:17:08.545Z,1010.87
2018-01-23T01:18:08.528Z,1010.90
2018-01-23T01:19:08.523Z,1010.91
2018-01-23T01:20:08.515Z,1010.97
2018-01-23T01:21:08.503Z,1010.93
2018-01-23T01:22:08.488Z,1010.97
2018-01-23T01:23:08.873Z,1010.94
2018-01-23T01:24:09.182Z,1010.97
2018-01-23T01:25:08.476Z,1010.98
2018-01-23T01:26:08.605Z,1010.96
2018-01-23T01:27:08.440Z,1010.99
2018-01-23T01:28:08.471Z,1010.99
2018-01-23T01:29:08.498Z,1010.96
2018-01-23T01:30:08.629Z,1010.91
2018-01-23T01:31:08.484Z,1010.96
2018-01-23T01:32:08.415Z,1011.00
2018-01-23T01:33:08.412Z,1010.99
2018-01-23T01:34:08.369Z,1010.98
2018-01-23T01:35:08.357Z,1011.03
2018-01-23T01:36:08.350Z,1011.04
2018-01-23T01:37:08.344Z,1011.03
2018-01-23T01:38:08.326Z,1011.02
2018-01-23T01:39:08.318Z,1011.00
2018-01-23T01:40:08.302Z,1011.02
2018-01-23T01:41:08.299Z,1011.06
2018-01-23T01:42:08.293Z,1011.05
2018-01-23T01:43:08.286Z,1011.01
2018-01-23T01:44:08.266Z,1011.08
2018-01-23T01:45:08.261Z,1011.08
2018-01-23T01:46:08.251Z,1011.10
2018-01-23T01:47:08.238Z,1011.11
2018-01-23T01:48:08.252Z,1011.12
2018-01-23T01:49:08.231Z,1011.16
2018-01-23T01:50:08.204Z,1011.18
2018-01-23T01:51:08.201Z,1011.16
2018-01-23T01:52:08.190Z,1011.18
2018-01-23T01:53:08.175Z,1011.18
2018-01-23T01:54:08.158Z,1011.21
2018-01-23T01:55:08.160Z,1011.24
2018-01-23T01:56:08.146Z,1011.21
2018-01-23T01:57:08.129Z,1011.23
2018-01-23T01:58:08.122Z,1011.27
2018-01-23T01:59:08.121Z,1011.26
2018-01-23T02:00:08.104Z,1011.27
2018-01-23T02:01:08.095Z,1011.25
2018-01-23T02:02:08.087Z,1011.29
2018-01-23T02:03:08.071Z,1011.27
2018-01-23T02:04:08.063Z,1011.27
2018-01-23T02:05:08.048Z,1011.33
2018-01-23T02:06:08.040Z,1011.29
2018-01-23T02:07:08.032Z,1011.37
2018-01-23T02:08:08.025Z,1011.34
2018-01-23T02:09:08.009Z,1011.41
2018-01-23T02:10:08.000Z,1011.44
2018-01-23T02:11:07.986Z,1011.40
2018-01-23T02:12:07.974Z,1011.38
2018-01-23T02:13:07.972Z,1011.39
2018-01-23T02:14:07.973Z,1011.40
2018-01-23T02:15:07.966Z,1011.38
2018-01-23T02:16:07.939Z,1011.41
2018-01-23T02:17:07.926Z,1011.44
2018-01-23T02:18:07.912Z,1011.42
2018-01-23T02:19:07.901Z,1011.44
2018-01-23T02:20:07.913Z,1011.48
2018-01-23T02:21:07.886Z,1011.47
2018-01-23T02:22:07.879Z,1011.53
2018-01-23T02:23:07.858Z,1011.50
2018-01-23T02:24:07.849Z,1011.53
2018-01-23T02:25:07.842Z,1011.53
2018-01-23T02:26:07.839Z,1011.56
2018-01-23T02:27:07.850Z,1011.58
2018-01-23T02:28:07.819Z,1011.60
2018-01-23T02:29:07.799Z,1011.60
2018-01-23T02:30:07.791Z,1011.62
2018-01-23T02:31:07.790Z,1011.64
2018-01-23T02:32:07.775Z,1011.66
2018-01-23T02:33:07.758Z,1011.63
2018-01-23T02:34:07.761Z,1011.67
2018-01-23T02:35:07.738Z,1011.65
2018-01-23T02:36:07.739Z,1011.62
2018-01-23T02:37:07.749Z,1011.65
2018-01-23T02:38:07.705Z,1011.67
2018-01-23T02:39:07.698Z,1011.63
2018-01-23T02:40:07.686Z,1011.63
2018-01-23T02:41:07.677Z,1011.68
2018-01-23T02:42:07.671Z,1011.62
2018-01-23T02:43:07.655Z,1011.62
2018-01-23T02:44:07.644Z,1011.64
2018-01-23T02:45:07.636Z,1011.63
2018-01-23T02:46:07.630Z,1011.65
2018-01-23T02:47:07.612Z,1011.66
2018-01-23T02:48:07.602Z,1011.67
2018-01-23T02:49:07.593Z,1011.70
2018-01-23T02:50:07.585Z,1011.71
2018-01-23T02:51:07.573Z,1011.69
2018-01-23T02:52:07.564Z,1011.71
2018-01-23T02:53:07.553Z,1011.71
2018-01-23T02:54:07.539Z,1011.70
2018-01-23T02:55:07.531Z,1011.76
2018-01-23T02:56:07.522Z,1011.77
2018-01-23T02:57:07.511Z,1011.82
2018-01-23T02:58:07.502Z,1011.80
2018-01-23T02:59:07.498Z,1011.84
2018-01-23T03:00:07.475Z,1011.81
2018-01-23T03:01:07.469Z,1011.83
2018-01-23T03:02:07.460Z,1011.83
2018-01-23T03:03:07.450Z,1011.82
2018-01-23T03:04:07.445Z,1011.81
2018-01-23T03:05:07.427Z,1011.81
2018-01-23T03:06:07.421Z,1011.78
2018-01-23T03:07:07.405Z,1011.83
2018-01-23T03:08:07.396Z,1011.84
2018-01-23T03:09:07.388Z,1011.86
2018-01-23T03:10:07.381Z,1011.90
2018-01-23T03:11:07.365Z,1011.88
2018-01-23T03:12:07.354Z,1011.93
2018-01-23T03:13:07.345Z,1011.88
2018-01-23T03:14:07.332Z,1011.93
2018-01-23T03:15:07.325Z,1011.95
2018-01-23T03:16:07.320Z,1011.98
2018-01-23T03:17:07.305Z,1012.00
2018-01-23T03:18:07.295Z,1011.99
2018-01-23T03:19:07.283Z,1012.04
2018-01-23T03:20:07.275Z,1012.04
2018-01-23T03:21:07.279Z,1012.01
2018-01-23T03:22:07.256Z,1012.03
2018-01-23T03:23:07.241Z,1012.04
2018-01-23T03:24:07.235Z,1012.07
2018-01-23T03:25:07.219Z,1012.12
2018-01-23T03:26:07.213Z,1012.14
2018-01-23T03:27:07.199Z,1012.14
2018-01-23T03:28:07.189Z,1012.09
2018-01-23T03:29:07.179Z,1012.12
2018-01-23T03:30:07.174Z,1012.13
2018-01-23T03:31:07.159Z,1012.13
2018-01-23T03:32:07.149Z,1012.15
2018-01-23T03:33:07.138Z,1012.15
2018-01-23T03:34:07.129Z,1012.17
2018-01-23T03:35:07.115Z,1012.21
2018-01-23T03:36:07.105Z,1012.23
2018-01-23T03:37:07.097Z,1012.22
2018-01-23T03:38:07.085Z,1012.14
2018-01-23T03:39:07.077Z,1012.18
2018-01-23T03:40:07.066Z,1012.14
2018-01-23T03:41:07.069Z,1012.15
2018-01-23T03:42:07.048Z,1012.16
2018-01-23T03:43:07.040Z,1012.21
2018-01-23T03:44:07.028Z,1012.20
2018-01-23T03:45:07.013Z,1012.21
2018-01-23T03:46:07.005Z,1012.21
2018-01-23T03:47:06.991Z,1012.22
2018-01-23T03:48:06.985Z,1012.21
2018-01-23T03:49:06.971Z,1012.20
2018-01-23T03:50:06.959Z,1012.21
2018-01-23T03:51:06.953Z,1012.23
2018-01-23T03:52:06.941Z,1012.23
2018-01-23T03:53:06.931Z,1012.24
2018-01-23T03:54:06.925Z,1012.27
2018-01-23T03:55:06.907Z,1012.33
2018-01-23T03:56:06.900Z,1012.28
2018-01-23T03:57:06.905Z,1012.27
2018-01-23T03:58:06.881Z,1012.31
2018-01-23T03:59:06.872Z,1012.32
2018-01-23T04:00:06.862Z,1012.31
2018-01-23T04:01:06.855Z,1012.28
2018-01-23T04:02:06.838Z,1012.32
2018-01-23T04:03:06.828Z,1012.34
2018-01-23T04:04:06.820Z,1012.36
2018-01-23T04:05:06.807Z,1012.37
2018-01-23T04:06:06.803Z,1012.41
2018-01-23T04:07:06.795Z,1012.39
2018-01-23T04:08:06.774Z,1012.38
2018-01-23T04:09:06.767Z,1012.41
2018-01-23T04:10:06.759Z,1012.38
2018-01-23T04:11:06.747Z,1012.44
2018-01-23T04:12:06.738Z,1012.37
2018-01-23T04:13:06.726Z,1012.38
2018-01-23T04:14:06.717Z,1012.46
2018-01-23T04:15:06.704Z,1012.45
2018-01-23T04:16:06.694Z,1012.49
2018-01-23T04:17:06.686Z,1012.50
2018-01-23T04:18:06.687Z,1012.48
2018-01-23T04:19:06.663Z,1012.50
2018-01-23T04:20:06.655Z,1012.56
2018-01-23T04:21:06.650Z,1012.51
2018-01-23T04:22:06.633Z,1012.51
2018-01-23T04:23:06.624Z,1012.56
2018-01-23T04:24:06.615Z,1012.52
2018-01-23T04:25:06.602Z,1012.60
2018-01-23T04:26:06.594Z,1012.60
2018-01-23T04:27:06.582Z,1012.61
2018-01-23T04:28:06.574Z,1012.67
2018-01-23T04:29:06.560Z,1012.65
2018-01-23T04:30:06.554Z,1012.60
2018-01-23T04:31:06.539Z,1012.61
2018-01-23T04:32:06.530Z,1012.58
2018-01-23T04:33:06.527Z,1012.57
2018-01-23T04:34:06.518Z,1012.62
2018-01-23T04:35:06.498Z,1012.68
2018-01-23T04:36:06.493Z,1012.66
2018-01-23T04:37:06.479Z,1012.68
2018-01-23T04:38:06.472Z,1012.70
2018-01-23T04:39:06.465Z,1012.70
2018-01-23T04:40:06.500Z,1012.71
2018-01-23T04:41:06.453Z,1012.70
2018-01-23T04:42:06.456Z,1012.78
2018-01-23T04:43:06.427Z,1012.79
2018-01-23T04:44:06.409Z,1012.81
2018-01-23T04:45:06.397Z,1012.76
2018-01-23T04:46:06.390Z,1012.77
2018-01-23T04:47:13.328Z,1012.80
2018-01-23T04:48:06.365Z,1012.79
2018-01-23T04:49:06.354Z,1012.84
2018-01-23T04:50:06.347Z,1012.83
2018-01-23T04:51:06.336Z,1012.82
2018-01-23T04:52:06.326Z,1012.85
2018-01-23T04:53:06.316Z,1012.89
2018-01-23T04:54:06.306Z,1012.88
2018-01-23T04:55:06.295Z,1012.89
2018-01-23T04:56:06.283Z,1012.91
2018-01-23T04:57:06.278Z,1012.90
2018-01-23T04:58:06.264Z,1012.92
2018-01-23T04:59:06.252Z,1012.95
2018-01-23T05:00:06.251Z,1012.93
2018-01-23T05:01:06.233Z,1012.91
2018-01-23T05:02:06.223Z,1012.97
2018-01-23T05:03:06.214Z,1012.95
2018-01-23T05:04:06.203Z,1012.97
2018-01-23T05:05:06.193Z,1013.02
2018-01-23T05:06:06.183Z,1013.03
2018-01-23T05:07:06.180Z,1013.03
2018-01-23T05:08:06.160Z,1013.01
2018-01-23T05:09:06.161Z,1013.01
2018-01-23T05:10:06.136Z,1013.00
2018-01-23T05:11:06.126Z,1012.98
2018-01-23T05:12:06.118Z,1013.03
2018-01-23T05:13:06.105Z,1013.03
2018-01-23T05:14:06.099Z,1013.07
2018-01-23T05:15:06.088Z,1013.06
2018-01-23T05:16:06.079Z,1013.09
2018-01-23T05:17:06.064Z,1013.10
2018-01-23T05:18:06.057Z,1013.08
2018-01-23T05:19:06.042Z,1013.00
2018-01-23T05:20:06.036Z,1013.07
2018-01-23T05:21:06.030Z,1013.08
2018-01-23T05:22:06.023Z,1013.06
2018-01-23T05:23:05.997Z,1013.10
2018-01-23T05:24:05.994Z,1013.08
2018-01-23T05:25:05.978Z,1013.13
2018-01-23T05:26:05.975Z,1013.10
2018-01-23T05:27:05.965Z,1013.06
2018-01-23T05:28:05.950Z,1013.13
2018-01-23T05:29:05.940Z,1013.10
2018-01-23T05:30:05.934Z,1013.12
2018-01-23T05:31:05.920Z,1013.06
2018-01-23T05:32:05.911Z,1013.09
2018-01-23T05:33:05.903Z,1013.12
2018-01-23T05:34:05.891Z,1013.14
2018-01-23T05:35:05.880Z,1013.12
2018-01-23T05:36:05.874Z,1013.13
2018-01-23T05:37:05.863Z,1013.12
2018-01-23T05:38:05.876Z,1013.13
2018-01-23T05:39:05.834Z,1013.18
2018-01-23T05:40:05.826Z,1013.19
2018-01-23T05:41:05.816Z,1013.21
2018-01-23T05:42:05.807Z,1013.24
2018-01-23T05:43:05.793Z,1013.25
2018-01-23T05:44:05.779Z,1013.25
2018-01-23T05:45:05.775Z,1013.22
2018-01-23T05:46:05.762Z,1013.26
2018-01-23T05:47:05.753Z,1013.28
2018-01-23T05:48:05.742Z,1013.28
2018-01-23T05:49:05.728Z,1013.28
2018-01-23T05:50:05.716Z,1013.31
2018-01-23T05:51:05.705Z,1013.33
2018-01-23T05:52:05.699Z,1013.34
2018-01-23T05:53:05.688Z,1013.29
2018-01-23T05:54:05.679Z,1013.37
2018-01-23T05:55:05.664Z,1013.36
2018-01-23T05:56:05.659Z,1013.35
2018-01-23T05:57:05.642Z,1013.40
2018-01-23T05:58:05.636Z,1013.40
2018-01-23T05:59:05.622Z,1013.41
2018-01-23T06:00:05.644Z,1013.43
2018-01-23T06:01:05.601Z,1013.43
2018-01-23T06:02:05.591Z,1013.44
2018-01-23T06:03:05.580Z,1013.43
2018-01-23T06:04:05.581Z,1013.43
2018-01-23T06:05:05.557Z,1013.47
2018-01-23T06:06:05.549Z,1013.45
2018-01-23T06:07:05.538Z,1013.50
2018-01-23T06:08:05.524Z,1013.49
2018-01-23T06:09:05.516Z,1013.52
2018-01-23T06:10:05.515Z,1013.50
2018-01-23T06:11:05.493Z,1013.54
2018-01-23T06:12:05.488Z,1013.56
2018-01-23T06:13:05.482Z,1013.52
2018-01-23T06:14:05.464Z,1013.56
2018-01-23T06:15:05.484Z,1013.58
2018-01-23T06:16:05.472Z,1013.57
2018-01-23T06:17:05.434Z,1013.57
2018-01-23T06:18:05.452Z,1013.55
2018-01-23T06:19:05.416Z,1013.57
2018-01-23T06:20:05.402Z,1013.55
2018-01-23T06:21:05.393Z,1013.57
2018-01-23T06:22:05.382Z,1013.59
2018-01-23T06:23:05.365Z,1013.60
2018-01-23T06:24:05.354Z,1013.60
2018-01-23T06:25:05.348Z,1013.63
2018-01-23T06:26:05.339Z,1013.59
2018-01-23T06:27:05.325Z,1013.60
2018-01-23T06:28:05.369Z,1013.59
2018-01-23T06:29:05.303Z,1013.63
2018-01-23T06:30:05.295Z,1013.63
2018-01-23T06:31:05.280Z,1013.65
2018-01-23T06:32:05.272Z,1013.62
2018-01-23T06:33:05.263Z,1013.64
2018-01-23T06:34:05.246Z,1013.63
2018-01-23T06:35:05.238Z,1013.67
2018-01-23T06:36:05.229Z,1013.66
2018-01-23T06:37:05.219Z,1013.67
2018-01-23T06:38:05.211Z,1013.63
2018-01-23T06:39:05.196Z,1013.65
2018-01-23T06:40:05.195Z,1013.69
2018-01-23T06:41:05.178Z,1013.70
2018-01-23T06:42:05.165Z,1013.69
2018-01-23T06:43:05.154Z,1013.69
2018-01-23T06:44:05.146Z,1013.69
2018-01-23T06:45:05.132Z,1013.65
2018-01-23T06:46:05.124Z,1013.69
2018-01-23T06:47:05.111Z,1013.68
2018-01-23T06:48:05.100Z,1013.69
2018-01-23T06:49:05.090Z,1013.71
2018-01-23T06:50:05.088Z,1013.71
2018-01-23T06:51:05.072Z,1013.76
2018-01-23T06:52:05.060Z,1013.76
2018-01-23T06:53:05.050Z,1013.77
2018-01-23T06:54:05.046Z,1013.78
2018-01-23T06:55:05.030Z,1013.75
2018-01-23T06:56:05.045Z,1013.79
2018-01-23T06:57:05.023Z,1013.79
2018-01-23T06:58:04.994Z,1013.81
2018-01-23T06:59:05.044Z,1013.80
2018-01-23T07:00:04.975Z,1013.84
2018-01-23T07:01:04.970Z,1013.83
2018-01-23T07:02:04.980Z,1013.84
2018-01-23T07:03:04.945Z,1013.86
2018-01-23T07:04:04.932Z,1013.82
2018-01-23T07:05:04.927Z,1013.85
2018-01-23T07:06:04.910Z,1013.86
2018-01-23T07:07:04.901Z,1013.86
2018-01-23T07:08:04.896Z,1013.91
2018-01-23T07:09:04.882Z,1013.89
2018-01-23T07:10:04.870Z,1013.94
2018-01-23T07:11:04.859Z,1013.95
2018-01-23T07:12:04.848Z,1013.92
2018-01-23T07:13:04.854Z,1013.94
2018-01-23T07:14:04.829Z,1013.94
2018-01-23T07:15:04.820Z,1013.97
2018-01-23T07:16:04.807Z,1013.94
2018-01-23T07:17:04.793Z,1013.94
2018-01-23T07:18:04.837Z,1013.96
2018-01-23T07:19:04.773Z,1013.98
2018-01-23T07:20:04.777Z,1013.97
2018-01-23T07:21:04.755Z,1013.96
2018-01-23T07:22:04.746Z,1013.97
2018-01-23T07:23:04.732Z,1013.97
2018-01-23T07:24:04.736Z,1013.98
2018-01-23T07:25:04.718Z,1013.94
2018-01-23T07:26:04.704Z,1013.96
2018-01-23T07:27:04.693Z,1013.99
2018-01-23T07:28:04.680Z,1013.98
2018-01-23T07:29:04.673Z,1013.98
2018-01-23T07:30:04.667Z,1013.98
2018-01-23T07:31:04.644Z,1014.01
2018-01-23T07:32:04.641Z,1014.04
2018-01-23T07:33:04.629Z,1014.05
2018-01-23T07:34:04.618Z,1014.04
2018-01-23T07:35:04.608Z,1014.03
2018-01-23T07:36:04.597Z,1014.10
2018-01-23T07:37:04.587Z,1014.06
2018-01-23T07:38:04.573Z,1014.05
2018-01-23T07:39:04.572Z,1014.14
2018-01-23T07:40:04.551Z,1014.12
2018-01-23T07:41:04.544Z,1014.11
2018-01-23T07:42:04.536Z,1014.13
2018-01-23T07:43:04.519Z,1014.13
2018-01-23T07:44:04.513Z,1014.14
2018-01-23T07:45:04.499Z,1014.20
2018-01-23T07:46:04.490Z,1014.19
2018-01-23T07:47:04.484Z,1014.21
2018-01-23T07:48:04.471Z,1014.21
2018-01-23T07:49:04.461Z,1014.22
2018-01-23T07:50:04.449Z,1014.26
2018-01-23T07:51:04.435Z,1014.27
2018-01-23T07:52:04.431Z,1014.28
2018-01-23T07:53:04.420Z,1014.29
2018-01-23T07:54:04.422Z,1014.31
2018-01-23T07:55:04.420Z,1014.29
2018-01-23T07:56:04.387Z,1014.27
2018-01-23T07:57:04.375Z,1014.31
2018-01-23T07:58:04.367Z,1014.32
2018-01-23T07:59:04.350Z,1014.34
2018-01-23T08:00:04.345Z,1014.32
2018-01-23T08:01:04.387Z,1014.36
2018-01-23T08:02:04.324Z,1014.33
2018-01-23T08:03:04.312Z,1014.36
2018-01-23T08:04:04.298Z,1014.41
2018-01-23T08:05:04.291Z,1014.35
2018-01-23T08:06:04.299Z,1014.38
2018-01-23T08:07:04.267Z,1014.36
2018-01-23T08:08:04.261Z,1014.38
2018-01-23T08:09:04.251Z,1014.37
2018-01-23T08:10:04.239Z,1014.41
2018-01-23T08:11:04.228Z,1014.44
2018-01-23T08:12:04.218Z,1014.43
2018-01-23T08:13:04.209Z,1014.47
2018-01-23T08:14:04.198Z,1014.51
2018-01-23T08:15:04.193Z,1014.51
2018-01-23T08:16:04.177Z,1014.52
2018-01-23T08:17:04.167Z,1014.55
2018-01-23T08:18:04.155Z,1014.56
2018-01-23T08:19:04.142Z,1014.54
2018-01-23T08:20:04.136Z,1014.51
2018-01-23T08:21:04.126Z,1014.55
2018-01-23T08:22:04.113Z,1014.58
2018-01-23T08:23:04.107Z,1014.56
2018-01-23T08:24:04.095Z,1014.55
2018-01-23T08:25:04.084Z,1014.61
2018-01-23T08:26:04.076Z,1014.59
2018-01-23T08:27:04.072Z,1014.55
2018-01-23T08:28:04.052Z,1014.58
2018-01-23T08:29:04.048Z,1014.56
2018-01-23T08:30:04.033Z,1014.49
2018-01-23T08:31:04.017Z,1014.54
2018-01-23T08:32:04.008Z,1014.53
2018-01-23T08:33:03.997Z,1014.54
2018-01-23T08:34:04.001Z,1014.53
2018-01-23T08:35:04.008Z,1014.56
2018-01-23T08:36:04.002Z,1014.55
2018-01-23T08:37:03.976Z,1014.52
2018-01-23T08:38:03.949Z,1014.55
2018-01-23T08:39:03.940Z,1014.55
2018-01-23T08:40:03.930Z,1014.54
2018-01-23T08:41:03.926Z,1014.54
2018-01-23T08:42:03.909Z,1014.61
2018-01-23T08:43:03.945Z,1014.58
2018-01-23T08:44:03.894Z,1014.59
2018-01-23T08:45:03.894Z,1014.61
2018-01-23T08:46:03.879Z,1014.60
2018-01-23T08:47:03.860Z,1014.60
2018-01-23T08:48:03.872Z,1014.57
2018-01-23T08:49:03.835Z,1014.56
2018-01-23T08:50:03.825Z,1014.60
2018-01-23T08:51:03.824Z,1014.62
2018-01-23T08:52:03.807Z,1014.60
2018-01-23T08:53:03.793Z,1014.59
2018-01-23T08:54:03.782Z,1014.58
2018-01-23T08:55:03.772Z,1014.56
2018-01-23T08:56:03.770Z,1014.56
2018-01-23T08:57:03.765Z,1014.57
2018-01-23T08:58:03.739Z,1014.58
2018-01-23T08:59:03.733Z,1014.57
2018-01-23T09:00:03.719Z,1014.54
2018-01-23T09:01:03.735Z,1014.55
2018-01-23T09:02:03.703Z,1014.62
2018-01-23T09:03:03.701Z,1014.68
2018-01-23T09:04:03.681Z,1014.62
2018-01-23T09:05:03.802Z,1014.66
2018-01-23T09:06:03.670Z,1014.61
2018-01-23T09:07:03.651Z,1014.61
2018-01-23T09:08:03.654Z,1014.64
2018-01-23T09:09:03.641Z,1014.61
2018-01-23T09:10:03.619Z,1014.62
2018-01-23T09:11:03.610Z,1014.65
2018-01-23T09:12:03.604Z,1014.63
2018-01-23T09:13:03.592Z,1014.72
2018-01-23T09:14:03.584Z,1014.72
2018-01-23T09:15:03.566Z,1014.70
2018-01-23T09:16:03.559Z,1014.76
2018-01-23T09:17:03.551Z,1014.77
2018-01-23T09:18:03.537Z,1014.79
2018-01-23T09:19:03.529Z,1014.74
2018-01-23T09:20:03.530Z,1014.69
2018-01-23T09:21:03.514Z,1014.71
2018-01-23T09:22:03.497Z,1014.73
2018-01-23T09:23:03.494Z,1014.74
2018-01-23T09:24:03.483Z,1014.72
2018-01-23T09:25:03.485Z,1014.71
2018-01-23T09:26:03.460Z,1014.71
2018-01-23T09:27:03.450Z,1014.73
2018-01-23T09:28:03.438Z,1014.71
2018-01-23T09:29:03.428Z,1014.71
2018-01-23T09:30:03.479Z,1014.72
2018-01-23T09:31:03.408Z,1014.77
2018-01-23T09:32:03.400Z,1014.74
2018-01-23T09:33:03.394Z,1014.76
2018-01-23T09:34:03.384Z,1014.77
2018-01-23T09:35:03.371Z,1014.77
2018-01-23T09:36:03.372Z,1014.75
2018-01-23T09:37:03.350Z,1014.79
2018-01-23T09:38:03.345Z,1014.80
2018-01-23T09:39:03.329Z,1014.81
2018-01-23T09:40:03.319Z,1014.80
2018-01-23T09:41:03.307Z,1014.76
2018-01-23T09:42:03.298Z,1014.78
2018-01-23T09:43:03.288Z,1014.79
2018-01-23T09:44:03.283Z,1014.78
2018-01-23T09:45:03.316Z,1014.81
2018-01-23T09:46:03.259Z,1014.78
2018-01-23T09:47:03.245Z,1014.78
2018-01-23T09:48:03.239Z,1014.84
2018-01-23T09:49:03.240Z,1014.78
2018-01-23T09:50:03.215Z,1014.77
2018-01-23T09:51:03.209Z,1014.80
2018-01-23T09:52:03.199Z,1014.84
2018-01-23T09:53:03.195Z,1014.82
2018-01-23T09:54:03.182Z,1014.83
2018-01-23T09:55:03.174Z,1014.75
2018-01-23T09:56:03.158Z,1014.75
2018-01-23T09:57:03.146Z,1014.75
2018-01-23T09:58:03.137Z,1014.75
2018-01-23T09:59:03.125Z,1014.77
2018-01-23T10:00:03.119Z,1014.77
2018-01-23T10:01:03.106Z,1014.79
2018-01-23T10:02:03.104Z,1014.84
2018-01-23T10:03:03.084Z,1014.83
2018-01-23T10:04:03.078Z,1014.81
2018-01-23T10:05:03.067Z,1014.85
2018-01-23T10:06:03.060Z,1014.80
2018-01-23T10:07:03.047Z,1014.83
2018-01-23T10:08:03.038Z,1014.80
2018-01-23T10:09:03.031Z,1014.80
2018-01-23T10:10:03.030Z,1014.83
2018-01-23T10:11:03.008Z,1014.83
2018-01-23T10:12:02.999Z,1014.82
2018-01-23T10:13:03.041Z,1014.83
2018-01-23T10:14:02.982Z,1014.84
2018-01-23T10:15:02.970Z,1014.81
2018-01-23T10:16:02.963Z,1014.87
2018-01-23T10:17:02.947Z,1014.90
2018-01-23T10:18:02.939Z,1014.84
2018-01-23T10:19:02.929Z,1014.92
2018-01-23T10:20:02.923Z,1014.94
2018-01-23T10:21:02.908Z,1014.90
2018-01-23T10:22:02.921Z,1014.90
2018-01-23T10:23:02.920Z,1014.90
2018-01-23T10:24:02.876Z,1014.88
2018-01-23T10:25:02.871Z,1014.85
2018-01-23T10:26:02.859Z,1014.87
2018-01-23T10:27:02.844Z,1014.82
2018-01-23T10:28:02.841Z,1014.81
2018-01-23T10:29:02.834Z,1014.82
2018-01-23T10:30:02.816Z,1014.78
2018-01-23T10:31:02.810Z,1014.79
2018-01-23T10:32:02.801Z,1014.84
2018-01-23T10:33:02.793Z,1014.81
2018-01-23T10:34:02.787Z,1014.87
2018-01-23T10:35:02.781Z,1014.78
2018-01-23T10:36:02.762Z,1014.76
2018-01-23T10:37:02.753Z,1014.72
2018-01-23T10:38:02.740Z,1014.72
2018-01-23T10:39:02.742Z,1014.76
2018-01-23T10:40:02.749Z,1014.76
2018-01-23T10:41:02.713Z,1014.82
2018-01-23T10:42:02.706Z,1014.79
2018-01-23T10:43:02.692Z,1014.70
2018-01-23T10:44:02.686Z,1014.67
2018-01-23T10:45:02.675Z,1014.66
2018-01-23T10:46:02.664Z,1014.67
2018-01-23T10:47:02.655Z,1014.63
2018-01-23T10:48:02.646Z,1014.63
2018-01-23T10:49:02.638Z,1014.61
2018-01-23T10:50:02.631Z,1014.65
2018-01-23T10:51:02.663Z,1014.62
2018-01-23T10:52:02.603Z,1014.53
2018-01-23T10:53:02.597Z,1014.54
2018-01-23T10:54:02.593Z,1014.61
2018-01-23T10:55:02.575Z,1014.55
2018-01-23T10:56:02.570Z,1014.46
2018-01-23T10:57:02.561Z,1014.52
2018-01-23T10:58:02.545Z,1014.55
2018-01-23T10:59:02.536Z,1014.56
2018-01-23T11:00:02.537Z,1014.57
2018-01-23T11:01:02.517Z,1014.61
2018-01-23T11:02:02.515Z,1014.60
2018-01-23T11:03:02.498Z,1014.59
2018-01-23T11:04:02.497Z,1014.55
2018-01-23T11:05:02.483Z,1014.55
2018-01-23T11:06:02.470Z,1014.61
2018-01-23T11:07:02.471Z,1014.54
2018-01-23T11:08:02.455Z,1014.61
2018-01-23T11:09:02.444Z,1014.61
2018-01-23T11:10:02.436Z,1014.59
2018-01-23T11:11:02.421Z,1014.54
2018-01-23T11:12:02.416Z,1014.53
2018-01-23T11:13:02.404Z,1014.58
2018-01-23T11:14:02.397Z,1014.51
2018-01-23T11:15:02.388Z,1014.56
2018-01-23T11:16:02.377Z,1014.54
2018-01-23T11:17:02.369Z,1014.51
2018-01-23T11:18:02.359Z,1014.48
2018-01-23T11:19:02.376Z,1014.48
2018-01-23T11:20:02.344Z,1014.43
2018-01-23T11:21:02.336Z,1014.40
2018-01-23T11:22:02.319Z,1014.38
2018-01-23T11:23:02.308Z,1014.40
2018-01-23T11:24:02.302Z,1014.36
2018-01-23T11:25:02.294Z,1014.39
2018-01-23T11:26:02.290Z,1014.35
2018-01-23T11:27:02.276Z,1014.36
2018-01-23T11:28:02.268Z,1014.37
2018-01-23T11:29:02.257Z,1014.40
2018-01-23T11:30:02.247Z,1014.37
2018-01-23T11:31:02.242Z,1014.39
2018-01-23T11:32:02.229Z,1014.34
2018-01-23T11:33:02.213Z,1014.42
2018-01-23T11:34:02.205Z,1014.40
2018-01-23T11:35:02.197Z,1014.38
2018-01-23T11:36:02.191Z,1014.34
2018-01-23T11:37:02.181Z,1014.31
2018-01-23T11:38:02.171Z,1014.32
2018-01-23T11:39:02.162Z,1014.30
2018-01-23T11:40:02.151Z,1014.28
2018-01-23T11:41:02.139Z,1014.28
2018-01-23T11:42:02.134Z,1014.30
2018-01-23T11:43:02.126Z,1014.29
2018-01-23T11:44:02.114Z,1014.29
2018-01-23T11:45:02.111Z,1014.26
2018-01-23T11:46:02.097Z,1014.28
2018-01-23T11:47:02.087Z,1014.17
2018-01-23T11:48:02.092Z,1014.22
2018-01-23T11:49:02.071Z,1014.20
2018-01-23T11:50:02.062Z,1014.17
2018-01-23T11:51:02.053Z,1014.18
2018-01-23T11:52:02.044Z,1014.22
2018-01-23T11:53:02.033Z,1014.18
2018-01-23T11:54:02.021Z,1014.19
2018-01-23T11:55:02.022Z,1014.16
2018-01-23T11:56:02.010Z,1014.20
2018-01-23T11:57:01.996Z,1014.25
2018-01-23T11:58:01.989Z,1014.25
2018-01-23T11:59:01.978Z,1014.27
2018-01-23T12:00:01.970Z,1014.23
2018-01-23T12:01:01.957Z,1014.20
2018-01-23T12:02:01.953Z,1014.21
2018-01-23T12:03:01.945Z,1014.18
2018-01-23T12:04:01.937Z,1014.16
2018-01-23T12:05:01.929Z,1014.12